sensor_id;sensor_type;location;lat;lon;timestamp;pressure;altitude;pressure_sealevel;temperature;humidity
50650;BME280;36621;60.058;30.346;2023-11-21T00:03:03;101547.47;;;-2.75;61.54
50650;BME280;36621;60.058;30.346;2023-11-21T00:10:35;101585.59;;;-2.40;61.71
50650;BME280;36621;60.058;30.346;2023-11-21T00:18:10;101593.47;;;-2.30;61.24
50650;BME280;36621;60.058;30.346;2023-11-21T00:25:42;101589.28;;;-2.33;61.01
50650;BME280;36621;60.058;30.346;2023-11-21T00:33:16;101595.66;;;-2.25;61.83
50650;BME280;36621;60.058;30.346;2023-11-21T00:40:48;101564.38;;;-2.41;60.97
50650;BME280;36621;60.058;30.346;2023-11-21T00:48:21;101602.00;;;-2.10;61.84
50650;BME280;36621;60.058;30.346;2023-11-21T00:55:53;101616.06;;;-2.16;61.49
50650;BME280;36621;60.058;30.346;2023-11-21T01:03:29;101578.25;;;-2.46;61.29
50650;BME280;36621;60.058;30.346;2023-11-21T01:11:02;101633.75;;;-2.48;61.57
50650;BME280;36621;60.058;30.346;2023-11-21T01:18:35;101629.31;;;-2.82;61.70
50650;BME280;36621;60.058;30.346;2023-11-21T01:26:08;101614.31;;;-2.75;61.69
50650;BME280;36621;60.058;30.346;2023-11-21T01:33:42;101631.75;;;-2.46;61.21
50650;BME280;36621;60.058;30.346;2023-11-21T01:41:15;101628.25;;;-2.38;61.02
50650;BME280;36621;60.058;30.346;2023-11-21T01:48:48;101635.09;;;-2.44;61.59
50650;BME280;36621;60.058;30.346;2023-11-21T01:56:21;101623.22;;;-2.58;60.86
50650;BME280;36621;60.058;30.346;2023-11-21T02:03:54;101642.63;;;-2.39;61.06
50650;BME280;36621;60.058;30.346;2023-11-21T02:11:27;101424.03;;;-3.71;61.32
50650;BME280;36621;60.058;30.346;2023-11-21T02:19:00;101640.81;;;-2.31;61.28
50650;BME280;36621;60.058;30.346;2023-11-21T02:26:33;101646.50;;;-2.17;61.01
50650;BME280;36621;60.058;30.346;2023-11-21T02:34:06;101596.47;;;-2.58;61.20
50650;BME280;36621;60.058;30.346;2023-11-21T02:41:39;101588.59;;;-2.59;60.91
50650;BME280;36621;60.058;30.346;2023-11-21T02:49:11;101658.53;;;-2.13;61.84
50650;BME280;36621;60.058;30.346;2023-11-21T02:56:44;101642.97;;;-2.26;61.76
50650;BME280;36621;60.058;30.346;2023-11-21T03:04:17;101672.25;;;-2.08;61.36
50650;BME280;36621;60.058;30.346;2023-11-21T03:11:50;101664.56;;;-2.11;61.53
50650;BME280;36621;60.058;30.346;2023-11-21T03:19:22;101643.81;;;-2.25;61.83
50650;BME280;36621;60.058;30.346;2023-11-21T03:26:56;101670.38;;;-2.24;61.81
50650;BME280;36621;60.058;30.346;2023-11-21T03:34:28;101638.41;;;-2.58;61.13
50650;BME280;36621;60.058;30.346;2023-11-21T03:42:03;101705.56;;;-2.11;61.79
50650;BME280;36621;60.058;30.346;2023-11-21T03:49:35;101708.91;;;-2.00;61.61
50650;BME280;36621;60.058;30.346;2023-11-21T03:57:08;101711.75;;;-2.02;61.48
50650;BME280;36621;60.058;30.346;2023-11-21T04:04:41;101705.88;;;-2.22;62.48
50650;BME280;36621;60.058;30.346;2023-11-21T04:12:14;101726.09;;;-2.11;61.43
50650;BME280;36621;60.058;30.346;2023-11-21T04:19:46;101735.84;;;-2.02;61.19
50650;BME280;36621;60.058;30.346;2023-11-21T04:27:19;101746.19;;;-2.07;61.61
50650;BME280;36621;60.058;30.346;2023-11-21T04:34:51;101773.25;;;-2.27;61.56
50650;BME280;36621;60.058;30.346;2023-11-21T04:42:24;101779.00;;;-2.48;62.03
50650;BME280;36621;60.058;30.346;2023-11-21T04:49:56;101635.56;;;-3.42;61.90
50650;BME280;36621;60.058;30.346;2023-11-21T04:57:29;101743.59;;;-2.84;61.76
50650;BME280;36621;60.058;30.346;2023-11-21T05:05:02;101604.41;;;-3.60;60.84
50650;BME280;36621;60.058;30.346;2023-11-21T05:12:37;101785.63;;;-2.60;61.11
50650;BME280;36621;60.058;30.346;2023-11-21T05:20:11;101730.53;;;-3.14;60.79
50650;BME280;36621;60.058;30.346;2023-11-21T05:27:45;101799.59;;;-3.01;61.17
50650;BME280;36621;60.058;30.346;2023-11-21T05:35:17;101812.91;;;-3.09;61.26
50650;BME280;36621;60.058;30.346;2023-11-21T05:42:51;101810.66;;;-3.40;61.38
50650;BME280;36621;60.058;30.346;2023-11-21T05:50:23;101828.75;;;-3.34;61.19
50650;BME280;36621;60.058;30.346;2023-11-21T05:57:56;101814.78;;;-3.63;61.94
50650;BME280;36621;60.058;30.346;2023-11-21T06:05:28;101857.09;;;-3.69;61.76
50650;BME280;36621;60.058;30.346;2023-11-21T06:13:04;101852.78;;;-3.97;61.46
50650;BME280;36621;60.058;30.346;2023-11-21T06:20:38;101867.47;;;-3.84;61.53
50650;BME280;36621;60.058;30.346;2023-11-21T06:28:11;101875.41;;;-3.74;61.47
50650;BME280;36621;60.058;30.346;2023-11-21T06:35:43;101886.34;;;-3.49;61.34
50650;BME280;36621;60.058;30.346;2023-11-21T06:43:17;101820.88;;;-3.89;61.40
50650;BME280;36621;60.058;30.346;2023-11-21T06:50:49;101910.94;;;-3.27;61.31
50650;BME280;36621;60.058;30.346;2023-11-21T06:58:24;101922.75;;;-3.30;61.00
50650;BME280;36621;60.058;30.346;2023-11-21T07:05:56;101904.81;;;-3.38;60.90
50650;BME280;36621;60.058;30.346;2023-11-21T07:13:29;101925.94;;;-2.90;60.50
50650;BME280;36621;60.058;30.346;2023-11-21T07:21:01;101933.78;;;-2.71;59.10
50650;BME280;36621;60.058;30.346;2023-11-21T07:28:35;101927.41;;;-2.52;58.15
50650;BME280;36621;60.058;30.346;2023-11-21T07:36:08;101930.41;;;-2.55;57.52
50650;BME280;36621;60.058;30.346;2023-11-21T07:43:42;101930.94;;;-2.51;57.54
50650;BME280;36621;60.058;30.346;2023-11-21T07:51:14;101931.34;;;-2.38;58.07
50650;BME280;36621;60.058;30.346;2023-11-21T07:58:47;101928.09;;;-2.23;56.18
50650;BME280;36621;60.058;30.346;2023-11-21T08:06:21;101918.28;;;-2.41;56.46
50650;BME280;36621;60.058;30.346;2023-11-21T08:13:54;101950.56;;;-2.08;56.53
50650;BME280;36621;60.058;30.346;2023-11-21T08:21:26;101953.78;;;-2.04;57.09
50650;BME280;36621;60.058;30.346;2023-11-21T08:29:01;101954.97;;;-1.99;57.22
50650;BME280;36621;60.058;30.346;2023-11-21T08:36:33;101955.50;;;-1.95;57.15
50650;BME280;36621;60.058;30.346;2023-11-21T08:44:06;101951.06;;;-1.78;57.83
50650;BME280;36621;60.058;30.346;2023-11-21T08:51:38;101952.47;;;-1.66;57.31
50650;BME280;36621;60.058;30.346;2023-11-21T08:59:11;101916.25;;;-1.78;57.64
50650;BME280;36621;60.058;30.346;2023-11-21T09:06:49;101736.81;;;-2.97;58.22
50650;BME280;36621;60.058;30.346;2023-11-21T09:14:22;101886.53;;;-2.01;58.51
50650;BME280;36621;60.058;30.346;2023-11-21T09:21:55;101954.69;;;-1.53;58.64
50650;BME280;36621;60.058;30.346;2023-11-21T09:29:29;101935.06;;;-1.62;58.35
50650;BME280;36621;60.058;30.346;2023-11-21T09:37:10;101952.88;;;-1.44;57.75
50650;BME280;36621;60.058;30.346;2023-11-21T09:44:54;101925.47;;;-1.72;58.05
50650;BME280;36621;60.058;30.346;2023-11-21T09:52:41;101940.44;;;-1.62;58.93
50650;BME280;36621;60.058;30.346;2023-11-21T10:00:18;101939.56;;;-1.62;58.33
50650;BME280;36621;60.058;30.346;2023-11-21T10:08:02;101963.06;;;-1.48;58.92
50650;BME280;36621;60.058;30.346;2023-11-21T10:15:35;101920.66;;;-1.61;59.37
50650;BME280;36621;60.058;30.346;2023-11-21T10:23:08;101970.13;;;-1.30;59.57
50650;BME280;36621;60.058;30.346;2023-11-21T10:30:44;101947.19;;;-1.41;60.01
50650;BME280;36621;60.058;30.346;2023-11-21T10:38:16;101973.00;;;-1.24;60.11
50650;BME280;36621;60.058;30.346;2023-11-21T10:45:49;101984.25;;;-1.12;59.94
50650;BME280;36621;60.058;30.346;2023-11-21T10:53:22;101960.75;;;-1.34;59.86
50650;BME280;36621;60.058;30.346;2023-11-21T11:00:56;101994.16;;;-1.12;60.47
50650;BME280;36621;60.058;30.346;2023-11-21T11:08:29;101997.66;;;-1.12;60.93
50650;BME280;36621;60.058;30.346;2023-11-21T11:16:03;101996.31;;;-1.08;60.41
50650;BME280;36621;60.058;30.346;2023-11-21T11:23:54;101990.59;;;-1.13;60.41
50650;BME280;36621;60.058;30.346;2023-11-21T11:31:39;101960.59;;;-1.33;60.66
50650;BME280;36621;60.058;30.346;2023-11-21T11:39:27;101993.94;;;-1.19;61.26
50650;BME280;36621;60.058;30.346;2023-11-21T11:47:01;101981.97;;;-1.49;61.52
50650;BME280;36621;60.058;30.346;2023-11-21T11:54:35;102005.75;;;-1.46;61.95
50650;BME280;36621;60.058;30.346;2023-11-21T12:02:10;101998.13;;;-1.33;62.47
50650;BME280;36621;60.058;30.346;2023-11-21T12:09:42;102004.31;;;-1.32;62.29
50650;BME280;36621;60.058;30.346;2023-11-21T12:17:16;101976.31;;;-1.38;61.08
50650;BME280;36621;60.058;30.346;2023-11-21T12:24:48;101975.13;;;-1.44;60.89
50650;BME280;36621;60.058;30.346;2023-11-21T12:32:21;102023.56;;;-1.29;61.56
50650;BME280;36621;60.058;30.346;2023-11-21T12:39:53;102026.25;;;-1.29;61.28
50650;BME280;36621;60.058;30.346;2023-11-21T12:47:30;102038.31;;;-1.25;60.90
50650;BME280;36621;60.058;30.346;2023-11-21T12:55:03;101992.69;;;-1.49;61.20
50650;BME280;36621;60.058;30.346;2023-11-21T13:02:37;102015.34;;;-1.35;61.37
50650;BME280;36621;60.058;30.346;2023-11-21T13:10:11;102026.19;;;-1.45;61.13
50650;BME280;36621;60.058;30.346;2023-11-21T13:17:44;102038.56;;;-1.52;60.87
50650;BME280;36621;60.058;30.346;2023-11-21T13:25:17;101930.97;;;-2.17;60.63
50650;BME280;36621;60.058;30.346;2023-11-21T13:32:51;102029.59;;;-1.69;61.11
50650;BME280;36621;60.058;30.346;2023-11-21T13:40:23;102053.63;;;-1.51;60.44
50650;BME280;36621;60.058;30.346;2023-11-21T13:47:59;102053.59;;;-1.60;60.91
50650;BME280;36621;60.058;30.346;2023-11-21T13:55:31;102037.38;;;-1.84;60.94
50650;BME280;36621;60.058;30.346;2023-11-21T14:03:04;102057.72;;;-1.65;60.72
50650;BME280;36621;60.058;30.346;2023-11-21T14:10:41;102052.47;;;-1.75;60.05
50650;BME280;36621;60.058;30.346;2023-11-21T14:18:16;102072.72;;;-1.54;59.32
50650;BME280;36621;60.058;30.346;2023-11-21T14:25:50;102077.91;;;-1.53;59.93
50650;BME280;36621;60.058;30.346;2023-11-21T14:33:24;102021.09;;;-1.91;59.68
50650;BME280;36621;60.058;30.346;2023-11-21T14:40:56;102097.47;;;-1.52;60.09
50650;BME280;36621;60.058;30.346;2023-11-21T14:48:29;102089.50;;;-1.44;59.67
50650;BME280;36621;60.058;30.346;2023-11-21T14:56:13;102095.47;;;-1.50;59.76
50650;BME280;36621;60.058;30.346;2023-11-21T15:03:54;102090.69;;;-1.65;59.67
50650;BME280;36621;60.058;30.346;2023-11-21T15:11:26;102076.84;;;-1.86;59.11
50650;BME280;36621;60.058;30.346;2023-11-21T15:19:02;102101.22;;;-1.71;59.71
50650;BME280;36621;60.058;30.346;2023-11-21T15:26:35;102103.53;;;-1.77;58.68
50650;BME280;36621;60.058;30.346;2023-11-21T15:34:07;102107.06;;;-1.76;58.75
50650;BME280;36621;60.058;30.346;2023-11-21T15:41:40;102112.66;;;-1.87;58.61
50650;BME280;36621;60.058;30.346;2023-11-21T15:49:13;102028.78;;;-2.40;57.84
50650;BME280;36621;60.058;30.346;2023-11-21T15:56:48;102076.31;;;-2.16;57.27
50650;BME280;36621;60.058;30.346;2023-11-21T16:04:21;102089.13;;;-2.02;57.01
50650;BME280;36621;60.058;30.346;2023-11-21T16:11:54;102128.50;;;-1.94;56.38
50650;BME280;36621;60.058;30.346;2023-11-21T16:19:32;102144.44;;;-2.11;56.07
50650;BME280;36621;60.058;30.346;2023-11-21T16:27:05;102114.00;;;-2.46;55.69
50650;BME280;36621;60.058;30.346;2023-11-21T16:34:41;102033.19;;;-3.21;54.84
50650;BME280;36621;60.058;30.346;2023-11-21T16:42:17;102141.41;;;-2.62;54.66
50650;BME280;36621;60.058;30.346;2023-11-21T16:49:50;102137.19;;;-2.82;54.33
50650;BME280;36621;60.058;30.346;2023-11-21T16:57:22;102123.16;;;-2.84;54.10
50650;BME280;36621;60.058;30.346;2023-11-21T17:04:56;102103.06;;;-3.16;53.87
50650;BME280;36621;60.058;30.346;2023-11-21T17:12:28;102157.91;;;-2.84;54.58
50650;BME280;36621;60.058;30.346;2023-11-21T17:20:01;102152.59;;;-2.94;52.87
50650;BME280;36621;60.058;30.346;2023-11-21T17:27:40;102165.41;;;-2.98;54.18
50650;BME280;36621;60.058;30.346;2023-11-21T17:35:14;102152.53;;;-3.12;54.29
50650;BME280;36621;60.058;30.346;2023-11-21T17:42:46;102066.56;;;-3.63;54.61
50650;BME280;36621;60.058;30.346;2023-11-21T17:50:19;102061.53;;;-3.66;54.80
50650;BME280;36621;60.058;30.346;2023-11-21T17:57:51;102097.75;;;-3.54;54.49
50650;BME280;36621;60.058;30.346;2023-11-21T18:05:25;102153.84;;;-3.16;54.84
50650;BME280;36621;60.058;30.346;2023-11-21T18:12:57;102163.31;;;-3.04;55.07
50650;BME280;36621;60.058;30.346;2023-11-21T18:20:30;102157.38;;;-2.98;55.03
50650;BME280;36621;60.058;30.346;2023-11-21T18:28:02;102167.84;;;-3.04;55.10
50650;BME280;36621;60.058;30.346;2023-11-21T18:35:36;102162.53;;;-3.14;55.48
50650;BME280;36621;60.058;30.346;2023-11-21T18:43:08;102176.66;;;-2.94;55.85
50650;BME280;36621;60.058;30.346;2023-11-21T18:50:41;102181.41;;;-2.88;55.75
50650;BME280;36621;60.058;30.346;2023-11-21T18:58:17;102186.50;;;-2.67;55.85
50650;BME280;36621;60.058;30.346;2023-11-21T19:05:51;102184.78;;;-2.58;55.69
50650;BME280;36621;60.058;30.346;2023-11-21T19:13:23;102197.53;;;-2.80;55.63
50650;BME280;36621;60.058;30.346;2023-11-21T19:20:57;102140.63;;;-3.55;56.79
50650;BME280;36621;60.058;30.346;2023-11-21T19:28:30;102161.69;;;-3.62;57.66
50650;BME280;36621;60.058;30.346;2023-11-21T19:36:03;102129.00;;;-3.93;58.13
50650;BME280;36621;60.058;30.346;2023-11-21T19:43:35;102130.41;;;-3.89;57.93
50650;BME280;36621;60.058;30.346;2023-11-21T19:51:08;102124.69;;;-4.14;58.85
50650;BME280;36621;60.058;30.346;2023-11-21T19:58:43;102174.66;;;-3.77;58.61
50650;BME280;36621;60.058;30.346;2023-11-21T20:06:16;102220.28;;;-3.60;59.02
50650;BME280;36621;60.058;30.346;2023-11-21T20:13:51;102233.22;;;-3.66;58.58
50650;BME280;36621;60.058;30.346;2023-11-21T20:21:24;102235.75;;;-3.74;59.17
50650;BME280;36621;60.058;30.346;2023-11-21T20:28:56;102198.81;;;-4.08;59.25
50650;BME280;36621;60.058;30.346;2023-11-21T20:36:29;102239.97;;;-3.61;59.09
50650;BME280;36621;60.058;30.346;2023-11-21T20:44:01;102227.31;;;-3.69;59.56
50650;BME280;36621;60.058;30.346;2023-11-21T20:51:34;102247.97;;;-3.42;59.43
50650;BME280;36621;60.058;30.346;2023-11-21T20:59:07;102227.31;;;-3.59;59.43
50650;BME280;36621;60.058;30.346;2023-11-21T21:06:40;102220.88;;;-3.67;60.19
50650;BME280;36621;60.058;30.346;2023-11-21T21:14:12;102251.88;;;-3.26;59.73
50650;BME280;36621;60.058;30.346;2023-11-21T21:21:45;102177.00;;;-3.54;59.92
50650;BME280;36621;60.058;30.346;2023-11-21T21:29:17;102247.50;;;-3.27;60.66
50650;BME280;36621;60.058;30.346;2023-11-21T21:36:52;102242.72;;;-3.24;59.90
50650;BME280;36621;60.058;30.346;2023-11-21T21:44:24;102242.97;;;-3.17;60.48
50650;BME280;36621;60.058;30.346;2023-11-21T21:51:58;102245.16;;;-2.93;60.25
50650;BME280;36621;60.058;30.346;2023-11-21T21:59:30;102241.84;;;-3.15;59.96
50650;BME280;36621;60.058;30.346;2023-11-21T22:07:03;102194.28;;;-3.58;60.14
50650;BME280;36621;60.058;30.346;2023-11-21T22:14:36;102154.28;;;-3.97;60.12
50650;BME280;36621;60.058;30.346;2023-11-21T22:22:09;102191.66;;;-3.78;59.88
50650;BME280;36621;60.058;30.346;2023-11-21T22:29:41;102245.00;;;-3.58;60.46
50650;BME280;36621;60.058;30.346;2023-11-21T22:37:14;102203.44;;;-3.71;60.55
50650;BME280;36621;60.058;30.346;2023-11-21T22:44:46;102223.38;;;-3.55;60.54
50650;BME280;36621;60.058;30.346;2023-11-21T22:52:19;102245.28;;;-3.32;60.72
50650;BME280;36621;60.058;30.346;2023-11-21T22:59:51;102250.69;;;-3.14;60.89
50650;BME280;36621;60.058;30.346;2023-11-21T23:07:24;102244.59;;;-2.97;60.15
50650;BME280;36621;60.058;30.346;2023-11-21T23:14:57;102217.97;;;-3.16;60.40
50650;BME280;36621;60.058;30.346;2023-11-21T23:22:30;102236.47;;;-3.05;60.46
50650;BME280;36621;60.058;30.346;2023-11-21T23:30:05;102241.47;;;-2.92;60.10
50650;BME280;36621;60.058;30.346;2023-11-21T23:37:40;102262.03;;;-2.92;60.18
50650;BME280;36621;60.058;30.346;2023-11-21T23:45:12;102263.88;;;-2.93;59.85
50650;BME280;36621;60.058;30.346;2023-11-21T23:52:46;102244.63;;;-3.06;60.66
